Time;durP1;ratioP1;P1;durP2;ratioP2;P2;SDS_P1;SDS_P2;PMS_P1;PMS_P2;Temp;Humidity;BMP_temperature;BMP_pressure;BME280_temperature;BME280_humidity;BME280_pressure;Samples;Min_cycle;Max_cycle;Signal;HPM_P1;HPM_P2
2022/09/02 00:00:44;;;;;;;2.33;0.90;;;12.60;99.90;;;;;;5028554;28;20083;-76
2022/09/02 00:03:10;;;;;;;4.32;1.10;;;12.50;99.90;;;;;;5028811;28;20537;-77
2022/09/02 00:05:36;;;;;;;1.33;0.80;;;12.50;99.90;;;;;;5025549;28;20069;-77
2022/09/02 00:08:02;;;;;;;1.15;0.85;;;12.40;99.90;;;;;;5027996;28;20049;-77
2022/09/02 00:10:28;;;;;;;3.28;1.20;;;12.40;99.90;;;;;;5024486;28;20052;-77
2022/09/02 00:12:53;;;;;;;1.92;0.70;;;12.40;99.90;;;;;;5022296;28;20025;-77
2022/09/02 00:15:19;;;;;;;1.23;0.90;;;12.40;99.90;;;;;;5027202;28;20060;-77
2022/09/02 00:17:45;;;;;;;1.23;0.82;;;12.40;99.90;;;;;;5027180;28;20038;-78
2022/09/02 00:20:11;;;;;;;2.13;1.27;;;12.30;99.90;;;;;;5027426;28;20045;-77
2022/09/02 00:22:37;;;;;;;1.27;0.90;;;12.30;99.90;;;;;;5024322;28;20534;-77
2022/09/02 00:25:03;;;;;;;1.35;0.80;;;12.20;99.90;;;;;;5029450;28;20112;-77
2022/09/02 00:27:28;;;;;;;2.40;1.02;;;12.20;99.90;;;;;;5028410;28;20021;-77
2022/09/02 00:29:54;;;;;;;1.92;0.90;;;12.20;99.90;;;;;;5025939;28;20033;-77
2022/09/02 00:32:19;;;;;;;1.02;0.82;;;12.20;99.90;;;;;;5025770;28;20060;-78
2022/09/02 00:34:45;;;;;;;2.90;0.90;;;12.10;99.90;;;;;;5027840;28;20134;-78
2022/09/02 00:37:12;;;;;;;0.88;0.70;;;12.10;99.90;;;;;;5025928;28;20026;-77
2022/09/02 00:39:37;;;;;;;2.42;1.10;;;12.10;99.90;;;;;;5024382;28;20406;-77
2022/09/02 00:42:03;;;;;;;0.93;0.80;;;12.10;99.90;;;;;;5026812;28;20029;-77
2022/09/02 00:44:29;;;;;;;0.80;0.80;;;12.00;99.90;;;;;;5026035;28;20535;-78
2022/09/02 00:46:55;;;;;;;3.70;1.13;;;12.00;99.90;;;;;;5008904;28;20029;-77
2022/09/02 00:49:26;;;;;;;1.23;1.10;;;12.00;99.90;;;;;;5027340;28;20026;-77
2022/09/02 00:52:03;;;;;;;3.22;1.20;;;11.90;99.90;;;;;;5024627;28;20163;-77
2022/09/02 00:54:31;;;;;;;1.27;0.85;;;11.90;99.90;;;;;;5026379;28;20026;-77
2022/09/02 00:56:57;;;;;;;0.80;0.80;;;11.90;99.90;;;;;;5023655;28;20289;-77
2022/09/02 00:59:43;;;;;;;3.90;1.00;;;11.90;99.90;;;;;;5025535;28;20053;-77
2022/09/02 01:02:09;;;;;;;;;;;11.90;99.90;;;;;;5023549;28;20116;-77
2022/09/02 01:04:34;;;;;;;2.35;1.10;;;11.90;99.90;;;;;;5025157;28;20004;-78
2022/09/02 01:07:01;;;;;;;4.22;0.90;;;11.90;99.90;;;;;;5023791;28;20127;-78
2022/09/02 01:09:27;;;;;;;4.32;1.08;;;11.80;99.90;;;;;;5021042;28;20022;-77
2022/09/02 01:11:54;;;;;;;2.30;0.98;;;11.80;99.90;;;;;;5019327;28;20060;-77
2022/09/02 01:14:20;;;;;;;1.05;0.90;;;11.80;99.90;;;;;;5028463;28;20034;-77
2022/09/02 01:16:50;;;;;;;2.58;1.15;;;11.80;99.90;;;;;;5017135;28;20018;-78
2022/09/02 01:19:31;;;;;;;3.33;1.33;;;11.70;99.90;;;;;;5026678;28;20052;-78
2022/09/02 01:21:56;;;;;;;2.10;1.05;;;11.70;99.90;;;;;;5018086;28;20034;-77
2022/09/02 01:24:26;;;;;;;5.65;1.10;;;11.70;99.90;;;;;;5027601;28;20037;-77
2022/09/02 01:26:54;;;;;;;2.75;1.40;;;11.70;99.90;;;;;;5014668;28;20030;-77
2022/09/02 01:29:20;;;;;;;1.55;1.00;;;11.60;99.90;;;;;;5023352;28;20026;-77
2022/09/02 01:31:46;;;;;;;1.00;0.90;;;11.60;99.90;;;;;;5025580;28;20018;-78
2022/09/02 01:34:11;;;;;;;1.15;0.90;;;11.60;99.90;;;;;;5027123;28;20075;-76
2022/09/02 01:36:39;;;;;;;2.45;1.08;;;11.60;99.90;;;;;;5021142;28;20021;-77
2022/09/02 01:39:05;;;;;;;0.60;0.60;;;11.60;99.90;;;;;;5025662;28;20525;-77
2022/09/02 01:41:31;;;;;;;0.80;0.80;;;11.50;99.90;;;;;;5021751;28;20044;-77
2022/09/02 01:43:56;;;;;;;1.25;1.10;;;11.50;99.90;;;;;;5021142;28;20025;-77
2022/09/02 01:46:22;;;;;;;2.33;1.15;;;11.50;99.90;;;;;;5020838;28;20026;-77
2022/09/02 01:48:49;;;;;;;1.00;0.80;;;11.50;99.90;;;;;;5024627;28;20386;-77
2022/09/02 01:51:18;;;;;;;0.95;0.95;;;11.50;99.90;;;;;;5018319;28;20022;-78
2022/09/02 01:53:44;;;;;;;3.95;1.30;;;11.50;99.90;;;;;;5020248;28;20114;-78
2022/09/02 01:56:10;;;;;;;2.28;1.23;;;11.50;99.90;;;;;;5026432;28;20043;-78
2022/09/02 01:58:35;;;;;;;2.13;1.00;;;11.50;99.90;;;;;;5026153;28;20026;-77
2022/09/02 02:01:01;;;;;;;1.15;1.05;;;11.50;99.90;;;;;;5024545;28;20037;-77
2022/09/02 02:03:27;;;;;;;0.88;0.88;;;11.40;99.90;;;;;;5027753;28;20021;-77
2022/09/02 02:05:53;;;;;;;1.55;1.20;;;11.40;99.90;;;;;;5026371;28;20235;-79
2022/09/02 02:08:18;;;;;;;1.88;1.08;;;11.40;99.90;;;;;;5023370;28;20033;-78
2022/09/02 02:10:44;;;;;;;2.53;1.42;;;11.30;99.90;;;;;;5017831;28;20025;-79
2022/09/02 02:13:10;;;;;;;1.70;1.33;;;11.30;99.90;;;;;;5023634;28;20021;-78
2022/09/02 02:15:40;;;;;;;4.63;1.35;;;11.30;99.90;;;;;;5013466;28;20017;-77
2022/09/02 02:18:06;;;;;;;3.85;1.50;;;11.20;99.90;;;;;;5019614;28;20036;-77
2022/09/02 02:20:31;;;;;;;6.30;2.45;;;11.20;99.90;;;;;;5025706;28;20041;-78
2022/09/02 02:22:57;;;;;;;2.10;1.90;;;11.20;99.90;;;;;;5024863;28;20030;-77
2022/09/02 02:25:22;;;;;;;3.17;2.20;;;11.20;99.90;;;;;;5025888;28;20036;-77
2022/09/02 02:27:48;;;;;;;5.75;2.13;;;11.10;99.90;;;;;;5016654;28;20037;-77
2022/09/02 02:30:15;;;;;;;2.33;1.90;;;11.10;99.90;;;;;;5027090;28;20029;-78
2022/09/02 02:32:42;;;;;;;2.92;2.00;;;11.10;99.90;;;;;;5023937;28;20401;-77
2022/09/02 02:35:08;;;;;;;2.88;1.80;;;11.10;99.90;;;;;;5024478;28;20026;-77
2022/09/02 02:37:34;;;;;;;6.55;1.80;;;11.10;99.90;;;;;;5025513;28;20039;-78
2022/09/02 02:39:59;;;;;;;3.17;1.80;;;11.10;99.90;;;;;;5022235;28;20394;-78
2022/09/02 02:42:25;;;;;;;4.43;1.95;;;11.10;99.90;;;;;;5027878;28;20053;-77
2022/09/02 02:44:51;;;;;;;4.00;1.73;;;11.10;99.90;;;;;;5030533;28;20030;-77
2022/09/02 02:47:17;;;;;;;4.45;2.05;;;11.10;99.90;;;;;;5023621;28;20037;-78
2022/09/02 02:49:43;;;;;;;2.13;1.83;;;11.10;99.90;;;;;;5030302;28;20082;-77
2022/09/02 02:52:10;;;;;;;2.95;1.73;;;11.10;99.90;;;;;;5028163;28;20029;-78
2022/09/02 02:54:36;;;;;;;1.92;1.60;;;11.10;99.90;;;;;;5029363;28;20037;-77
2022/09/02 02:57:03;;;;;;;1.85;1.30;;;11.10;99.90;;;;;;5030125;28;20021;-77
2022/09/02 02:59:29;;;;;;;4.75;1.85;;;11.00;99.90;;;;;;5029871;28;20428;-78
2022/09/02 03:01:55;;;;;;;2.75;1.80;;;11.00;99.90;;;;;;5027010;28;20040;-77
2022/09/02 03:04:20;;;;;;;1.45;1.35;;;11.00;99.90;;;;;;5027392;28;20033;-77
2022/09/02 03:06:46;;;;;;;3.22;2.10;;;10.90;99.90;;;;;;5021948;28;20029;-78
2022/09/02 03:09:12;;;;;;;1.70;1.42;;;10.90;99.90;;;;;;5026200;28;20021;-77
2022/09/02 03:11:38;;;;;;;3.00;1.80;;;10.90;99.90;;;;;;5022493;28;20029;-77
2022/09/02 03:14:03;;;;;;;2.30;1.83;;;10.90;99.90;;;;;;5030765;28;20029;-77
2022/09/02 03:16:29;;;;;;;3.70;1.58;;;10.90;99.90;;;;;;5024802;28;20038;-78
2022/09/02 03:18:55;;;;;;;2.85;1.55;;;10.80;99.90;;;;;;5029393;28;20474;-77
2022/09/02 03:21:20;;;;;;;8.13;2.30;;;10.80;99.90;;;;;;5018937;28;20450;-77
2022/09/02 03:23:46;;;;;;;4.53;2.25;;;10.80;99.90;;;;;;5024880;28;20025;-78
2022/09/02 03:26:16;;;;;;;6.75;1.92;;;10.80;99.90;;;;;;5028078;28;20116;-77
2022/09/02 03:28:41;;;;;;;1.48;1.38;;;10.80;99.90;;;;;;5026461;28;20025;-78
2022/09/02 03:31:14;;;;;;;6.28;1.95;;;10.80;99.90;;;;;;5022036;28;20366;-79
2022/09/02 03:33:39;;;;;;;2.58;1.77;;;10.80;99.90;;;;;;5024905;28;20029;-78
2022/09/02 03:36:05;;;;;;;2.72;1.88;;;10.80;99.90;;;;;;5027702;28;20025;-77
2022/09/02 03:38:31;;;;;;;2.75;1.55;;;10.80;99.90;;;;;;5022372;28;20045;-78
2022/09/02 03:40:56;;;;;;;1.48;1.38;;;10.80;99.90;;;;;;5029719;28;20486;-78
2022/09/02 03:43:22;;;;;;;2.38;1.88;;;10.80;99.90;;;;;;5000045;28;20110;-77
2022/09/02 03:45:47;;;;;;;4.90;1.92;;;10.80;99.90;;;;;;5023203;28;20440;-78
2022/09/02 03:48:13;;;;;;;2.38;1.80;;;10.80;99.90;;;;;;5019484;28;20510;-78
2022/09/02 03:50:42;;;;;;;1.45;1.30;;;10.80;99.90;;;;;;5002648;28;20115;-77
2022/09/02 03:53:08;;;;;;;2.38;1.50;;;10.80;99.90;;;;;;5009752;28;20112;-78
2022/09/02 03:55:36;;;;;;;3.20;1.63;;;10.80;99.90;;;;;;5026501;28;20394;-77
2022/09/02 03:58:02;;;;;;;1.95;1.60;;;10.80;99.90;;;;;;5019970;28;20021;-77
2022/09/02 04:00:30;;;;;;;7.30;1.92;;;10.80;99.90;;;;;;5007400;28;20043;-78
2022/09/02 04:02:56;;;;;;;3.33;1.77;;;10.70;99.90;;;;;;4989743;28;20114;-77
2022/09/02 04:05:24;;;;;;;3.63;1.75;;;10.70;99.90;;;;;;5014682;28;20107;-77
2022/09/02 04:07:51;;;;;;;5.90;1.80;;;10.70;99.90;;;;;;5021407;28;20037;-78
2022/09/02 04:10:17;;;;;;;1.83;1.42;;;10.60;99.90;;;;;;5002057;28;20029;-78
2022/09/02 04:12:42;;;;;;;7.50;1.85;;;10.60;99.90;;;;;;5004881;28;20032;-78
2022/09/02 04:15:09;;;;;;;2.72;1.60;;;10.60;99.90;;;;;;5026528;28;20036;-78
2022/09/02 04:17:39;;;;;;;14.45;1.77;;;10.60;99.90;;;;;;5029116;28;20025;-78
2022/09/02 04:20:08;;;;;;;5.25;2.20;;;10.60;99.90;;;;;;5016421;28;20089;-78
2022/09/02 04:22:34;;;;;;;1.85;1.40;;;10.50;99.90;;;;;;4994093;28;20040;-78
2022/09/02 04:25:00;;;;;;;3.03;1.60;;;10.50;99.90;;;;;;5011714;28;20083;-79
2022/09/02 04:27:26;;;;;;;2.88;1.50;;;10.50;99.90;;;;;;4966311;28;20031;-78
2022/09/02 04:29:52;;;;;;;3.70;1.77;;;10.50;99.90;;;;;;5019291;28;20543;-78
2022/09/02 04:32:18;;;;;;;2.35;1.60;;;10.50;99.90;;;;;;4988295;28;20081;-78
2022/09/02 04:34:44;;;;;;;2.33;1.45;;;10.40;99.90;;;;;;4996717;28;20049;-78
2022/09/02 04:37:12;;;;;;;3.35;1.50;;;10.50;99.90;;;;;;5007544;28;20033;-78
2022/09/02 04:39:38;;;;;;;4.00;1.60;;;10.40;99.90;;;;;;4994086;28;20552;-78
2022/09/02 04:42:06;;;;;;;2.25;1.42;;;10.50;99.90;;;;;;4987983;28;20681;-79
2022/09/02 04:44:32;;;;;;;4.53;1.70;;;10.50;99.90;;;;;;4991110;28;20031;-78
2022/09/02 04:46:58;;;;;;;2.35;1.40;;;10.50;99.90;;;;;;4991196;28;20554;-78
2022/09/02 04:49:24;;;;;;;5.60;1.33;;;10.50;99.90;;;;;;5016043;28;20034;-78
2022/09/02 04:51:50;;;;;;;2.67;1.60;;;10.50;99.90;;;;;;5012304;28;20092;-78
2022/09/02 04:54:15;;;;;;;7.50;1.35;;;10.50;99.90;;;;;;5024954;28;20021;-79
2022/09/02 04:56:41;;;;;;;1.92;1.52;;;10.50;99.90;;;;;;5016852;28;20026;-77
2022/09/02 04:59:08;;;;;;;2.85;1.67;;;10.50;99.90;;;;;;5004471;28;20116;-78
2022/09/02 05:01:35;;;;;;;3.88;1.98;;;10.50;99.90;;;;;;4995305;28;20037;-78
2022/09/02 05:04:06;;;;;;;2.45;1.50;;;10.40;99.90;;;;;;5001741;28;20692;-79
2022/09/02 05:06:31;;;;;;;3.95;1.65;;;10.50;99.90;;;;;;5025763;28;20037;-79
2022/09/02 05:08:59;;;;;;;1.63;1.45;;;10.50;99.90;;;;;;5001910;28;20026;-78
2022/09/02 05:11:30;;;;;;;3.10;1.77;;;10.50;99.90;;;;;;4989753;28;20050;-80
2022/09/02 05:14:00;;;;;;;2.72;1.38;;;10.50;99.90;;;;;;4920641;28;20032;-79
2022/09/02 05:16:28;;;;;;;1.52;1.35;;;10.50;99.90;;;;;;4926467;28;20618;-79
2022/09/02 05:18:54;;;;;;;1.30;1.17;;;10.60;99.90;;;;;;4918231;28;20499;-78
2022/09/02 05:21:22;;;;;;;2.42;1.67;;;10.70;99.90;;;;;;4921269;28;20100;-78
2022/09/02 05:23:49;;;;;;;2.30;1.58;;;10.70;99.90;;;;;;4918489;28;20059;-79
2022/09/02 05:26:16;;;;;;;3.53;1.85;;;10.70;99.90;;;;;;4920730;28;20491;-79
2022/09/02 05:28:42;;;;;;;3.67;1.85;;;10.80;99.90;;;;;;4920587;29;20570;-78
2022/09/02 05:31:11;;;;;;;3.28;1.80;;;10.80;99.90;;;;;;4928589;28;20115;-78
2022/09/02 05:33:39;;;;;;;2.30;1.55;;;10.90;99.90;;;;;;4925198;28;20038;-78
2022/09/02 05:36:07;;;;;;;3.30;1.60;;;10.90;99.90;;;;;;4998331;28;20061;-78
2022/09/02 05:38:33;;;;;;;1.35;1.25;;;11.00;99.90;;;;;;5019562;28;20271;-79
2022/09/02 05:41:14;;;;;;;2.22;1.60;;;11.10;99.90;;;;;;5023982;28;20447;-79
2022/09/02 05:43:43;;;;;;;2.53;1.60;;;11.10;99.90;;;;;;5026298;28;20552;-78
2022/09/02 05:46:10;;;;;;;3.17;1.77;;;11.20;99.90;;;;;;5002408;28;20030;-78
2022/09/02 05:51:21;;;;;;;5.38;1.92;;;11.30;99.90;;;;;;5018438;28;20468;-78
2022/09/02 05:53:46;;;;;;;2.92;1.55;;;11.40;99.90;;;;;;5018802;28;20119;-78
2022/09/02 05:56:13;;;;;;;2.38;1.20;;;11.40;99.90;;;;;;5029098;28;20099;-79
2022/09/02 05:58:39;;;;;;;1.83;1.35;;;11.50;99.90;;;;;;4976707;28;20482;-78
2022/09/02 06:01:12;;;;;;;2.63;1.48;;;11.60;99.90;;;;;;5020256;28;20549;-78
2022/09/02 06:03:38;;;;;;;2.33;1.50;;;11.60;99.90;;;;;;5028830;28;20121;-78
2022/09/02 06:06:04;;;;;;;5.45;1.92;;;11.70;99.90;;;;;;5029106;28;20124;-79
2022/09/02 06:08:30;;;;;;;3.05;1.75;;;11.80;99.90;;;;;;5020539;28;20048;-79
2022/09/02 06:10:56;;;;;;;3.28;2.10;;;11.90;99.90;;;;;;5015225;28;20299;-78
2022/09/02 06:13:21;;;;;;;6.28;2.20;;;11.90;99.90;;;;;;4996726;28;20109;-78
2022/09/02 06:15:49;;;;;;;4.82;1.75;;;12.00;99.90;;;;;;4982780;28;20838;-78
2022/09/02 06:18:15;;;;;;;4.57;1.77;;;12.10;99.90;;;;;;5016460;28;20414;-78
2022/09/02 06:20:43;;;;;;;4.72;2.10;;;12.10;99.90;;;;;;5029133;28;20045;-78
2022/09/02 06:23:09;;;;;;;11.80;3.17;;;12.20;99.90;;;;;;5017796;28;20026;-78
2022/09/02 06:25:37;;;;;;;5.20;2.88;;;12.30;99.90;;;;;;5019866;28;20113;-79
2022/09/02 06:28:03;;;;;;;3.13;2.25;;;12.30;99.90;;;;;;5011848;28;20057;-78
2022/09/02 06:30:28;;;;;;;6.18;3.50;;;12.40;99.90;;;;;;5019451;28;20060;-79
2022/09/02 06:32:54;;;;;;;14.60;6.47;;;12.50;99.90;;;;;;5024013;28;20449;-78
2022/09/02 06:35:20;;;;;;;12.10;7.65;;;12.50;99.90;;;;;;5018417;28;20064;-78
2022/09/02 06:37:46;;;;;;;12.98;8.13;;;12.60;99.90;;;;;;5027429;28;20108;-79
2022/09/02 06:40:13;;;;;;;20.60;10.48;;;12.60;99.90;;;;;;5029012;28;20075;-78
2022/09/02 06:42:39;;;;;;;13.18;8.10;;;12.70;99.90;;;;;;5016573;28;20048;-78
2022/09/02 06:45:06;;;;;;;11.55;6.07;;;12.70;99.90;;;;;;5020719;28;20543;-79
2022/09/02 06:47:31;;;;;;;16.35;6.85;;;12.80;99.90;;;;;;5018556;28;20055;-79
2022/09/02 06:49:57;;;;;;;14.77;4.10;;;12.90;99.90;;;;;;5019299;28;20026;-79
2022/09/02 06:52:23;;;;;;;6.82;3.58;;;12.90;99.90;;;;;;5021502;28;20033;-78
2022/09/02 06:54:49;;;;;;;11.27;3.78;;;13.00;99.90;;;;;;5020215;28;20402;-78
2022/09/02 06:57:15;;;;;;;15.82;4.00;;;13.10;99.90;;;;;;5024792;28;20084;-80
2022/09/02 06:59:41;;;;;;;15.55;4.25;;;13.10;99.90;;;;;;5026447;28;20108;-78
2022/09/02 07:02:07;;;;;;;14.48;4.00;;;13.20;99.90;;;;;;5020529;28;20026;-80
2022/09/02 07:07:17;;;;;;;27.00;4.45;;;13.30;99.90;;;;;;5015107;28;20048;-79
2022/09/02 07:09:43;;;;;;;12.18;3.22;;;13.40;99.90;;;;;;5018600;28;20026;-78
2022/09/02 07:12:08;;;;;;;18.92;4.63;;;13.40;99.90;;;;;;5011046;28;20253;-79
2022/09/02 07:14:40;;;;;;;11.20;2.53;;;13.50;99.90;;;;;;5019962;28;20492;-79
2022/09/02 07:17:06;;;;;;;14.05;2.88;;;13.50;99.90;;;;;;5002245;28;20385;-79
2022/09/02 07:19:32;;;;;;;16.52;3.97;;;13.60;99.90;;;;;;4979457;28;20037;-80
2022/09/02 07:22:01;;;;;;;11.60;3.00;;;13.60;99.90;;;;;;5000372;28;20030;-81
2022/09/02 07:24:27;;;;;;;5.75;2.65;;;13.70;99.90;;;;;;5016528;28;20041;-79
2022/09/02 07:26:52;;;;;;;18.30;2.53;;;13.70;99.90;;;;;;5019490;28;20390;-79
2022/09/02 07:29:18;;;;;;;6.40;2.15;;;13.90;99.90;;;;;;5031270;28;20025;-79
2022/09/02 07:31:46;;;;;;;8.07;2.00;;;13.90;99.90;;;;;;5020043;28;20029;-80
2022/09/02 07:34:13;;;;;;;9.13;2.90;;;14.10;99.90;;;;;;5008392;28;20026;-79
2022/09/02 07:36:39;;;;;;;8.27;2.33;;;14.20;99.90;;;;;;5027637;28;20029;-79
2022/09/02 07:39:07;;;;;;;4.28;3.08;;;14.20;99.90;;;;;;5030118;28;20114;-79
2022/09/02 07:41:35;;;;;;;8.63;2.90;;;14.30;99.90;;;;;;5026714;28;20579;-79
2022/09/02 07:44:01;;;;;;;18.42;2.38;;;14.50;99.90;;;;;;5027863;28;20061;-80
2022/09/02 07:46:30;;;;;;;4.40;2.35;;;14.40;99.90;;;;;;5031076;28;20440;-79
2022/09/02 07:48:56;;;;;;;4.10;2.80;;;14.50;99.90;;;;;;5019581;28;20033;-79
2022/09/02 07:51:21;;;;;;;12.50;2.20;;;14.60;99.90;;;;;;5022471;28;20030;-79
2022/09/02 07:53:48;;;;;;;3.90;2.10;;;14.70;99.90;;;;;;5020993;28;20518;-79
2022/09/02 07:56:13;;;;;;;6.70;2.67;;;14.70;99.90;;;;;;5021950;28;20040;-81
2022/09/02 07:58:41;;;;;;;4.18;2.30;;;14.80;99.90;;;;;;5021195;28;20116;-79
2022/09/02 08:01:08;;;;;;;4.95;2.28;;;14.80;99.90;;;;;;5019034;28;20053;-79
2022/09/02 08:03:34;;;;;;;3.70;2.15;;;14.90;99.90;;;;;;5030164;28;20123;-79
2022/09/02 08:06:00;;;;;;;7.38;2.45;;;15.00;99.90;;;;;;5003152;28;20049;-80
2022/09/02 08:08:26;;;;;;;3.25;1.80;;;15.00;99.90;;;;;;5016706;28;20029;-79
2022/09/02 08:10:53;;;;;;;6.47;2.10;;;15.10;99.90;;;;;;5016480;28;20572;-78
2022/09/02 08:13:20;;;;;;;22.88;3.33;;;15.20;99.90;;;;;;5030351;28;20663;-80
2022/09/02 08:15:46;;;;;;;5.80;2.63;;;15.30;99.90;;;;;;5030654;28;20071;-80
2022/09/02 08:18:12;;;;;;;7.28;2.20;;;15.40;99.90;;;;;;5013418;28;20375;-79
2022/09/02 08:20:38;;;;;;;13.13;2.13;;;15.40;99.90;;;;;;5021096;28;20087;-79
2022/09/02 08:23:05;;;;;;;7.78;2.03;;;15.50;99.90;;;;;;5025076;28;20029;-79
2022/09/02 08:25:32;;;;;;;7.88;2.45;;;15.60;99.90;;;;;;5023551;28;20057;-80
2022/09/02 08:27:57;;;;;;;11.38;2.63;;;15.70;99.90;;;;;;4994502;28;20043;-80
2022/09/02 08:30:23;;;;;;;12.60;2.42;;;15.80;99.90;;;;;;5001844;28;20378;-80
2022/09/02 08:32:49;;;;;;;8.85;2.58;;;15.90;99.90;;;;;;5020877;28;20434;-79
2022/09/02 08:35:14;;;;;;;5.45;2.00;;;16.00;99.90;;;;;;5030668;28;20123;-79
2022/09/02 08:37:40;;;;;;;4.38;1.95;;;16.10;99.90;;;;;;5020985;28;20042;-79
2022/09/02 08:40:11;;;;;;;7.70;1.70;;;16.10;99.90;;;;;;5024479;28;20461;-80
2022/09/02 08:42:43;;;;;;;10.57;1.55;;;16.20;99.90;;;;;;5020981;28;20040;-80
2022/09/02 08:45:27;;;;;;;3.95;2.25;;;16.30;99.90;;;;;;5022011;28;20022;-80
2022/09/02 08:48:11;;;;;;;7.75;1.98;;;16.50;99.90;;;;;;5024728;28;20124;-79
2022/09/02 08:50:42;;;;;;;7.13;2.17;;;16.60;99.90;;;;;;5017993;28;20112;-80
2022/09/02 08:53:17;;;;;;;5.30;1.80;;;16.70;99.90;;;;;;5019704;28;20040;-81
2022/09/02 08:55:53;;;;;;;2.67;1.35;;;16.90;99.90;;;;;;4988494;28;20030;-81
2022/09/02 08:58:23;;;;;;;3.17;1.10;;;17.10;99.90;;;;;;5025988;28;20325;-80
2022/09/02 09:01:13;;;;;;;7.63;2.22;;;17.20;99.90;;;;;;5021672;28;20050;-80
2022/09/02 09:04:17;;;;;;;8.10;1.50;;;17.30;99.90;;;;;;5007948;28;20068;-80
2022/09/02 09:07:07;;;;;;;7.93;2.00;;;17.50;99.90;;;;;;5021559;28;20074;-81
2022/09/02 09:09:59;;;;;;;4.03;1.73;;;17.60;99.90;;;;;;5024680;28;20449;-80
2022/09/02 09:12:50;;;;;;;5.13;1.45;;;17.70;99.90;;;;;;5013869;28;20128;-80
2022/09/02 09:15:34;;;;;;;7.35;1.60;;;17.80;99.90;;;;;;4997900;28;20064;-81
2022/09/02 09:18:02;;;;;;;5.90;1.75;;;17.80;99.90;;;;;;5025523;28;20044;-81
2022/09/02 09:20:32;;;;;;;7.68;1.75;;;17.90;99.90;;;;;;5025978;28;20038;-81
2022/09/02 09:23:00;;;;;;;8.30;1.25;;;18.00;99.90;;;;;;4984121;28;20049;-81
2022/09/02 09:25:30;;;;;;;6.60;3.72;;;18.10;99.90;;;;;;5019818;28;20026;-81
2022/09/02 09:28:00;;;;;;;3.95;1.02;;;18.20;99.90;;;;;;5019564;28;20026;-79
2022/09/02 09:30:27;;;;;;;4.55;1.50;;;18.20;99.90;;;;;;5005200;28;20075;-81
2022/09/02 09:33:03;;;;;;;5.40;1.10;;;18.30;99.90;;;;;;5007081;28;20591;-80
2022/09/02 09:35:47;;;;;;;7.38;1.23;;;18.30;99.90;;;;;;5023623;28;20029;-81
2022/09/02 09:38:13;;;;;;;5.15;1.33;;;18.40;99.90;;;;;;5027607;28;20401;-82
2022/09/02 09:40:38;;;;;;;3.88;1.08;;;18.40;99.90;;;;;;5019624;28;20116;-80
2022/09/02 09:43:04;;;;;;;2.42;1.50;;;18.50;99.90;;;;;;5016869;28;20029;-78
2022/09/02 09:45:41;;;;;;;8.63;1.42;;;18.50;99.90;;;;;;5025398;28;20026;-81
2022/09/02 09:48:18;;;;;;;4.22;1.17;;;18.60;99.90;;;;;;5001567;28;20055;-80
2022/09/02 09:51:10;;;;;;;2.33;0.93;;;18.60;99.90;;;;;;5018219;28;20056;-80
2022/09/02 09:53:37;;;;;;;6.22;1.17;;;18.70;99.90;;;;;;5008465;28;20038;-80
2022/09/02 09:56:13;;;;;;;2.05;1.10;;;18.70;99.90;;;;;;5018173;28;20246;-80
2022/09/02 09:58:38;;;;;;;2.70;1.15;;;18.80;99.90;;;;;;5001075;28;20481;-81
2022/09/02 10:01:18;;;;;;;3.90;1.00;;;18.90;99.90;;;;;;5025337;28;20049;-80
2022/09/02 10:04:09;;;;;;;4.00;1.42;;;19.00;99.90;;;;;;5018667;28;20034;-81
2022/09/02 10:06:37;;;;;;;4.70;1.00;;;19.20;99.90;;;;;;5013918;28;20091;-79
2022/09/02 10:09:17;;;;;;;6.47;1.70;;;19.30;99.90;;;;;;5020636;28;20036;-80
2022/09/02 10:11:58;;;;;;;8.68;1.60;;;19.40;99.50;;;;;;5013215;28;20537;-80
2022/09/02 10:14:32;;;;;;;3.88;1.15;;;19.50;96.20;;;;;;5028076;28;20053;-79
2022/09/02 10:17:24;;;;;;;3.00;1.20;;;19.50;95.10;;;;;;5029235;28;20112;-80
2022/09/02 10:19:52;;;;;;;4.55;0.85;;;19.50;95.90;;;;;;5019567;28;20025;-80
2022/09/02 10:22:50;;;;;;;12.63;1.45;;;19.40;96.50;;;;;;5018778;28;20026;-79
2022/09/02 10:25:28;;;;;;;5.68;1.05;;;19.40;96.70;;;;;;5026825;28;20121;-81
2022/09/02 10:28:14;;;;;;;9.25;1.55;;;19.50;95.20;;;;;;5018408;28;20060;-80
2022/09/02 10:31:07;;;;;;;3.00;1.30;;;19.50;93.70;;;;;;5024324;28;20040;-80
2022/09/02 10:34:02;;;;;;;5.30;1.13;;;19.60;94.30;;;;;;5009751;28;20034;-81
2022/09/02 10:36:39;;;;;;;7.57;1.30;;;19.70;92.90;;;;;;5017314;28;20041;-80
2022/09/02 10:39:20;;;;;;;2.42;1.40;;;19.80;90.70;;;;;;4970701;28;20071;-80
2022/09/02 10:41:46;;;;;;;4.43;1.20;;;19.90;89.10;;;;;;5014585;28;20079;-80
2022/09/02 10:44:40;;;;;;;3.70;1.15;;;20.00;89.80;;;;;;5022712;28;20025;-80
2022/09/02 10:47:17;;;;;;;1.33;0.95;;;20.00;88.40;;;;;;5021420;28;20037;-80
2022/09/02 10:49:49;;;;;;;13.77;1.92;;;20.10;86.70;;;;;;5025954;28;20226;-81
2022/09/02 10:52:39;;;;;;;1.58;1.00;;;20.10;84.90;;;;;;5027875;28;20392;-81
2022/09/02 10:55:30;;;;;;;2.53;1.02;;;20.20;84.20;;;;;;4994340;28;20456;-81
2022/09/02 10:58:06;;;;;;;4.45;1.35;;;20.10;83.70;;;;;;5025178;28;20438;-80
2022/09/02 11:00:35;;;;;;;10.55;1.30;;;20.20;85.60;;;;;;5022455;28;20121;-81
2022/09/02 11:03:24;;;;;;;2.13;1.10;;;20.30;81.30;;;;;;4979450;28;20028;-79
2022/09/02 11:06:25;;;;;;;3.88;0.90;;;20.30;81.90;;;;;;5023053;28;20037;-81
2022/09/02 11:08:59;;;;;;;4.68;1.40;;;20.40;80.30;;;;;;5030197;28;20091;-81
2022/09/02 11:11:44;;;;;;;2.83;1.00;;;20.40;78.80;;;;;;5023076;28;20022;-80
2022/09/02 11:14:24;;;;;;;4.63;1.08;;;20.40;79.00;;;;;;5029349;28;20036;-81
2022/09/02 11:17:01;;;;;;;4.97;1.13;;;20.50;77.50;;;;;;5013285;28;20131;-81
2022/09/02 11:19:29;;;;;;;9.98;2.83;;;20.60;77.60;;;;;;5022807;28;20681;-79
2022/09/02 11:22:23;;;;;;;6.75;1.48;;;20.70;75.70;;;;;;5027969;28;20038;-81
2022/09/02 11:25:31;;;;;;;0.82;0.80;;;20.70;74.10;;;;;;5026817;28;20029;-80
2022/09/02 11:27:59;;;;;;;5.18;1.23;;;20.70;71.60;;;;;;5010238;28;20375;-80
2022/09/02 11:30:48;;;;;;;5.30;0.80;;;20.60;68.90;;;;;;5023903;28;20034;-80
2022/09/02 11:33:20;;;;;;;5.63;1.13;;;20.40;70.80;;;;;;5007213;28;20032;-81
2022/09/02 11:35:45;;;;;;;2.33;0.98;;;20.30;71.60;;;;;;5028313;28;20026;-80
2022/09/02 11:38:14;;;;;;;5.03;1.20;;;20.30;72.80;;;;;;5028586;28;20181;-79
2022/09/02 11:41:01;;;;;;;2.22;1.65;;;20.10;72.40;;;;;;5018733;28;20105;-80
2022/09/02 11:43:34;;;;;;;2.75;1.08;;;20.10;72.40;;;;;;5023703;28;20030;-80
2022/09/02 11:46:38;;;;;;;1.80;1.02;;;20.00;73.80;;;;;;5031699;28;20118;-81
2022/09/02 11:49:28;;;;;;;5.40;1.15;;;20.00;74.00;;;;;;5029714;28;20207;-79
2022/09/02 11:52:20;;;;;;;2.08;1.08;;;20.00;73.70;;;;;;5031630;28;20037;-80
2022/09/02 11:54:51;;;;;;;3.63;1.15;;;20.00;74.20;;;;;;5021496;28;20030;-80
2022/09/02 11:57:22;;;;;;;3.40;1.25;;;19.90;73.20;;;;;;5026033;28;20057;-80
2022/09/02 11:59:51;;;;;;;6.55;1.20;;;19.90;70.10;;;;;;5019744;28;20370;-77
2022/09/02 12:02:42;;;;;;;6.38;1.17;;;19.90;72.00;;;;;;5020477;28;20470;-80
2022/09/02 12:05:29;;;;;;;2.30;1.00;;;20.00;73.70;;;;;;5030836;28;20371;-80
2022/09/02 12:08:34;;;;;;;1.98;0.90;;;19.90;73.50;;;;;;5031031;28;20045;-80
2022/09/02 12:11:40;;;;;;;3.03;1.10;;;20.00;73.20;;;;;;4984903;28;20043;-81
2022/09/02 12:14:30;;;;;;;5.65;1.17;;;19.90;75.50;;;;;;4983962;28;20039;-80
2022/09/02 12:17:05;;;;;;;2.53;1.02;;;20.00;72.20;;;;;;4987999;28;20029;-80
2022/09/02 12:19:42;;;;;;;1.37;1.00;;;20.10;71.40;;;;;;5029364;28;20111;-81
2022/09/02 12:22:14;;;;;;;6.50;1.10;;;20.10;71.50;;;;;;5021465;28;20505;-80
2022/09/02 12:24:57;;;;;;;6.90;1.00;;;20.10;69.80;;;;;;5030138;28;20029;-80
2022/09/02 12:27:35;;;;;;;10.13;1.15;;;20.10;68.00;;;;;;5029919;28;20580;-80
2022/09/02 12:30:07;;;;;;;4.65;0.95;;;20.20;68.50;;;;;;4994697;28;20037;-80
2022/09/02 12:32:45;;;;;;;5.05;1.20;;;20.20;69.00;;;;;;5023441;28;20037;-80
2022/09/02 12:35:31;;;;;;;2.42;1.10;;;20.30;67.20;;;;;;5021091;28;20088;-79
2022/09/02 12:38:08;;;;;;;3.00;1.25;;;20.40;67.10;;;;;;5025851;28;20049;-79
2022/09/02 12:40:40;;;;;;;3.00;1.10;;;20.50;66.50;;;;;;5022598;28;20099;-79
2022/09/02 12:43:29;;;;;;;3.33;0.93;;;20.50;67.60;;;;;;5025631;28;20036;-82
2022/09/02 12:46:05;;;;;;;1.10;0.73;;;20.50;68.30;;;;;;5022090;28;20079;-80
2022/09/02 12:48:41;;;;;;;4.90;1.67;;;20.80;62.40;;;;;;5021721;28;20032;-81
2022/09/02 12:51:07;;;;;;;4.22;0.93;;;20.80;59.70;;;;;;5018807;28;20471;-80
2022/09/02 12:53:47;;;;;;;2.38;0.80;;;20.80;59.20;;;;;;5017283;28;20105;-80
2022/09/02 12:56:22;;;;;;;1.08;0.60;;;20.80;59.30;;;;;;5028792;28;20274;-81
2022/09/02 12:58:50;;;;;;;1.17;0.98;;;20.70;59.80;;;;;;5017009;28;20541;-80
2022/09/02 13:01:48;;;;;;;8.02;1.00;;;20.60;61.40;;;;;;5025711;28;20044;-81
2022/09/02 13:04:40;;;;;;;2.88;1.23;;;20.60;60.70;;;;;;4982094;28;20376;-81
2022/09/02 13:07:27;;;;;;;1.70;1.00;;;20.70;60.40;;;;;;4991067;28;20033;-81
2022/09/02 13:10:11;;;;;;;5.15;0.98;;;20.80;61.00;;;;;;5010425;28;20044;-80